Time;durP1;ratioP1;P1;durP2;ratioP2;P2;SDS_P1;SDS_P2;PMS_P1;PMS_P2;Temp;Humidity;BMP_temperature;BMP_pressure;BME280_temperature;BME280_humidity;BME280_pressure;Samples;Min_cycle;Max_cycle;Signal;HPM_P1;HPM_P2
2022/09/04 00:02:25;;;;;;;;;;;;;;;;;;10461208;28;20282;-59
2022/09/04 00:07:27;;;;;;;;;;;;;;;;;;10460895;28;20379;-59
2022/09/04 00:12:30;;;;;;;;;;;;;;;;;;10461392;28;19925;-59
2022/09/04 00:17:32;;;;;;;;;;;;;;;;;;10461797;28;19924;-59
2022/09/04 00:22:34;;;;;;;;;;;;;;;;;;10459643;28;19925;-59
2022/09/04 00:27:42;;;;;;;;;;;;;;;;;;10459703;28;19925;-59
2022/09/04 00:32:45;;;;;;;;;;;;;;;;;;10460679;28;20360;-59
2022/09/04 00:37:47;;;;;;;;;;;;;;;;;;10460384;28;20380;-59
2022/09/04 00:42:49;;;;;;;;;;;;;;;;;;10459478;28;19929;-59
2022/09/04 00:47:51;;;;;;;;;;;;;;;;;;10458142;28;19925;-59
2022/09/04 00:52:53;;;;;;;;;;;;;;;;;;10460692;28;19925;-59
2022/09/04 00:57:58;;;;;;;;;;;;;;;;;;10459522;28;19932;-59
2022/09/04 01:03:00;;;;;;;;;;;;;;;;;;10459229;28;19925;-59
2022/09/04 01:08:02;;;;;;;;;;;;;;;;;;10457500;28;19931;-59
2022/09/04 01:13:04;;;;;;;;;;;;;;;;;;10456574;28;19925;-59
2022/09/04 01:18:06;;;;;;;;;;;;;;;;;;10460061;28;19925;-59
2022/09/04 01:23:08;;;;;;;;;;;;;;;;;;10458694;28;19931;-59
2022/09/04 01:28:10;;;;;;;;;;;;;;;;;;10458468;28;19924;-59
2022/09/04 01:33:15;;;;;;;;;;;;;;;;;;10456402;28;19931;-59
2022/09/04 01:38:17;;;;;;;;;;;;;;;;;;10457414;28;20568;-59
2022/09/04 01:43:20;;;;;;;;;;;;;;;;;;10457941;28;19948;-64
2022/09/04 01:48:22;;;;;;;;;;;;;;;;;;10457883;28;19970;-64
2022/09/04 01:53:24;;;;;;;;;;;;;;;;;;10456932;28;19924;-64
2022/09/04 01:58:26;;;;;;;;;;;;;;;;;;10456718;28;20264;-64
2022/09/04 02:03:30;;;;;;;;;;;;;;;;;;10457761;28;19929;-64
2022/09/04 02:08:32;;;;;;;;;;;;;;;;;;10456220;28;19931;-64
2022/09/04 02:13:34;;;;;;;;;;;;;;;;;;10457617;28;19924;-64
2022/09/04 02:18:37;;;;;;;;;;;;;;;;;;10456555;28;20043;-64
2022/09/04 02:23:39;;;;;;;;;;;;;;;;;;10456017;28;19924;-64
2022/09/04 02:28:41;;;;;;;;;;;;;;;;;;10455215;28;19925;-64
2022/09/04 02:33:43;;;;;;;;;;;;;;;;;;10456505;28;19925;-64
2022/09/04 02:38:45;;;;;;;;;;;;;;;;;;10457003;28;19936;-64
2022/09/04 02:43:47;;;;;;;;;;;;;;;;;;10454152;28;20376;-64
2022/09/04 02:48:50;;;;;;;;;;;;;;;;;;10456186;28;19925;-64
2022/09/04 02:53:53;;;;;;;;;;;;;;;;;;10456337;28;20296;-64
2022/09/04 02:58:56;;;;;;;;;;;;;;;;;;10456143;28;19932;-64
2022/09/04 03:03:58;;;;;;;;;;;;;;;;;;10455879;28;19929;-64
2022/09/04 03:09:00;;;;;;;;;;;;;;;;;;10456848;28;19925;-64
2022/09/04 03:14:02;;;;;;;;;;;;;;;;;;10459509;28;19932;-64
2022/09/04 03:19:04;;;;;;;;;;;;;;;;;;10462971;28;19925;-64
2022/09/04 03:24:09;;;;;;;;;;;;;;;;;;10461700;28;19925;-64
2022/09/04 03:29:11;;;;;;;;;;;;;;;;;;10462999;28;19947;-63
2022/09/04 03:34:13;;;;;;;;;;;;;;;;;;10463127;28;19925;-64
2022/09/04 03:39:15;;;;;;;;;;;;;;;;;;10462881;28;19926;-64
2022/09/04 03:44:19;;;;;;;;;;;;;;;;;;10460880;28;19925;-64
2022/09/04 03:49:21;;;;;;;;;;;;;;;;;;10463017;28;19932;-64
2022/09/04 03:54:24;;;;;;;;;;;;;;;;;;10462487;28;19925;-64
2022/09/04 03:59:26;;;;;;;;;;;;;;;;;;10460722;28;20371;-64
2022/09/04 04:04:33;;;;;;;;;;;;;;;;;;10459985;28;20489;-64
2022/09/04 04:09:35;;;;;;;;;;;;;;;;;;10444669;28;19925;-64
2022/09/04 04:14:37;;;;;;;;;;;;;;;;;;10462094;28;19932;-64
2022/09/04 04:19:39;;;;;;;;;;;;;;;;;;10461144;28;19933;-64
2022/09/04 04:24:42;;;;;;;;;;;;;;;;;;10459656;28;19925;-64
2022/09/04 04:29:44;;;;;;;;;;;;;;;;;;10461766;28;19932;-64
2022/09/04 04:34:46;;;;;;;;;;;;;;;;;;10459537;28;19931;-64
2022/09/04 04:39:48;;;;;;;;;;;;;;;;;;10461759;28;19924;-64
2022/09/04 04:50:12;;;;;;;;;;;;;;;;;;10459357;28;19931;-64
2022/09/04 04:55:14;;;;;;;;;;;;;;;;;;10460366;28;19925;-64
2022/09/04 05:00:18;;;;;;;;;;;;;;;;;;10459473;28;20318;-64
2022/09/04 05:05:26;;;;;;;;;;;;;;;;;;10457057;28;20376;-64
2022/09/04 05:10:28;;;;;;;;;;;;;;;;;;10459783;28;19932;-64
2022/09/04 05:15:30;;;;;;;;;;;;;;;;;;10458945;28;19948;-64
2022/09/04 05:20:32;;;;;;;;;;;;;;;;;;10457703;28;19928;-64
2022/09/04 05:25:34;;;;;;;;;;;;;;;;;;10457547;28;19929;-63
2022/09/04 05:30:36;;;;;;;;;;;;;;;;;;10458886;28;19924;-67
2022/09/04 05:35:38;;;;;;;;;;;;;;;;;;10456922;28;19929;-66
2022/09/04 05:40:40;;;;;;;;;;;;;;;;;;10458040;28;20367;-66
2022/09/04 05:45:43;;;;;;;;;;;;;;;;;;10456791;28;19932;-66
2022/09/04 05:50:45;;;;;;;;;;;;;;;;;;10458278;28;19924;-66
2022/09/04 05:55:47;;;;;;;;;;;;;;;;;;10456606;28;19924;-66
2022/09/04 06:00:49;;;;;;;;;;;;;;;;;;10457385;28;19929;-66
2022/09/04 06:05:51;;;;;;;;;;;;;;;;;;10453813;28;19932;-66
2022/09/04 06:10:53;;;;;;;;;;;;;;;;;;10457664;28;19925;-66
2022/09/04 06:15:55;;;;;;;;;;;;;;;;;;10457019;28;19924;-66
2022/09/04 06:20:57;;;;;;;;;;;;;;;;;;10455989;28;19924;-66
2022/09/04 06:25:59;;;;;;;;;;;;;;;;;;10455118;28;19936;-66
2022/09/04 06:31:01;;;;;;;;;;;;;;;;;;10456567;28;19939;-66
2022/09/04 06:36:04;;;;;;;;;;;;;;;;;;10456339;28;20012;-66
2022/09/04 06:41:07;;;;;;;;;;;;;;;;;;10457036;28;19924;-66
2022/09/04 06:46:09;;;;;;;;;;;;;;;;;;10485934;22;20434;-58
2022/09/04 06:51:15;;;;;;;;;;;;;;;;;;10506772;28;19925;-58
2022/09/04 06:56:17;;;;;;;;;;;;;;;;;;10505780;28;20102;-58
2022/09/04 07:01:19;;;;;;;;;;;;;;;;;;10505762;28;19932;-59
2022/09/04 07:06:22;;;;;;;;;;;;;;;;;;10505959;28;19930;-59
2022/09/04 07:11:24;;;;;;;;;;;;;;;;;;10505447;28;20271;-59
2022/09/04 07:16:27;;;;;;;;;;;;;;;;;;10504179;28;19931;-59
2022/09/04 07:21:30;;;;;;;;;;;;;;;;;;10504930;28;19931;-59
2022/09/04 07:26:32;;;;;;;;;;;;;;;;;;10505153;28;19924;-59
2022/09/04 07:31:34;;;;;;;;;;;;;;;;;;10503498;28;19924;-59
2022/09/04 07:36:36;;;;;;;;;;;;;;;;;;10506362;28;19929;-59
2022/09/04 07:41:38;;;;;;;;;;;;;;;;;;10504596;28;19928;-59
2022/09/04 07:46:41;;;;;;;;;;;;;;;;;;10505643;28;19924;-59
2022/09/04 07:51:43;;;;;;;;;;;;;;;;;;10504218;28;20027;-59
2022/09/04 07:56:46;;;;;;;;;;;;;;;;;;10503894;28;19924;-59
2022/09/04 08:01:49;;;;;;;;;;;;;;;;;;10503989;28;19935;-59
2022/09/04 08:06:51;;;;;;;;;;;;;;;;;;10502402;28;19924;-60
2022/09/04 08:11:53;;;;;;;;;;;;;;;;;;10503647;28;19929;-59
2022/09/04 08:16:55;;;;;;;;;;;;;;;;;;10501379;28;20311;-60
2022/09/04 08:21:57;;;;;;;;;;;;;;;;;;10503243;28;19924;-59
2022/09/04 08:26:59;;;;;;;;;;;;;;;;;;10518604;28;19931;-59
2022/09/04 08:32:03;;;;;;;;;;;;;;;;;;10503217;28;19932;-60
2022/09/04 08:37:07;;;;;;;;;;;;;;;;;;10501916;28;20428;-60
2022/09/04 08:42:09;;;;;;;;;;;;;;;;;;10503845;28;19928;-60
2022/09/04 08:47:11;;;;;;;;;;;;;;;;;;10500431;28;19931;-59
2022/09/04 08:52:13;;;;;;;;;;;;;;;;;;10501964;28;20314;-60
2022/09/04 08:57:15;;;;;;;;;;;;;;;;;;10502735;28;19943;-60
2022/09/04 09:02:17;;;;;;;;;;;;;;;;;;10502982;28;19947;-60
2022/09/04 09:07:19;;;;;;;;;;;;;;;;;;10500111;28;19933;-60
2022/09/04 09:12:22;;;;;;;;;;;;;;;;;;10499340;28;20294;-60
2022/09/04 09:17:24;;;;;;;;;;;;;;;;;;10503029;28;19924;-60
2022/09/04 09:22:30;;;;;;;;;;;;;;;;;;10500188;28;20286;-60
2022/09/04 09:27:33;;;;;;;;;;;;;;;;;;10501018;28;19925;-60
2022/09/04 09:32:35;;;;;;;;;;;;;;;;;;10501432;28;19925;-60
2022/09/04 09:37:37;;;;;;;;;;;;;;;;;;10499445;28;19925;-60
2022/09/04 09:42:39;;;;;;;;;;;;;;;;;;10499377;28;19975;-61
2022/09/04 09:47:41;;;;;;;;;;;;;;;;;;10499263;28;20363;-63
2022/09/04 09:52:43;;;;;;;;;;;;;;;;;;10497766;28;20364;-63
2022/09/04 09:57:45;;;;;;;;;;;;;;;;;;10499443;28;19932;-63
2022/09/04 10:02:47;;;;;;;;;;;;;;;;;;10498728;28;20360;-63
2022/09/04 10:07:50;;;;;;;;;;;;;;;;;;10497118;28;20355;-63
2022/09/04 10:12:52;;;;;;;;;;;;;;;;;;10499144;28;19925;-63
2022/09/04 10:17:54;;;;;;;;;;;;;;;;;;10498203;28;20375;-63
2022/09/04 10:22:56;;;;;;;;;;;;;;;;;;10505992;28;19924;-63
2022/09/04 10:27:58;;;;;;;;;;;;;;;;;;10496144;28;19947;-63
2022/09/04 10:33:03;;;;;;;;;;;;;;;;;;10510038;28;19925;-63
2022/09/04 10:38:09;;;;;;;;;;;;;;;;;;10476334;28;19924;-63
2022/09/04 10:43:11;;;;;;;;;;;;;;;;;;10456525;28;20011;-63
2022/09/04 10:48:13;;;;;;;;;;;;;;;;;;10474122;28;20397;-64
2022/09/04 10:53:19;;;;;;;;;;;;;;;;;;10497740;28;19954;-64
2022/09/04 10:58:22;;;;;;;;;;;;;;;;;;10497007;28;19931;-63
2022/09/04 11:03:24;;;;;;;;;;;;;;;;;;10496652;28;19935;-64
2022/09/04 11:08:27;;;;;;;;;;;;;;;;;;10496201;28;19925;-63
2022/09/04 11:13:29;;;;;;;;;;;;;;;;;;10497853;28;19931;-64
2022/09/04 11:18:32;;;;;;;;;;;;;;;;;;10496648;28;19931;-64
2022/09/04 11:23:34;;;;;;;;;;;;;;;;;;10500540;28;20290;-64
2022/09/04 11:28:39;;;;;;;;;;;;;;;;;;10497302;28;19931;-63
2022/09/04 11:33:41;;;;;;;;;;;;;;;;;;10499035;28;20008;-64
2022/09/04 11:38:45;;;;;;;;;;;;;;;;;;10495167;28;20566;-64
2022/09/04 11:43:47;;;;;;;;;;;;;;;;;;10502341;28;20367;-64
2022/09/04 11:48:49;;;;;;;;;;;;;;;;;;10503010;28;20371;-64
2022/09/04 11:53:52;;;;;;;;;;;;;;;;;;10506302;28;19924;-64
2022/09/04 11:58:54;;;;;;;;;;;;;;;;;;10503956;28;19924;-64
2022/09/04 12:03:56;;;;;;;;;;;;;;;;;;10503276;28;19931;-63
2022/09/04 12:08:58;;;;;;;;;;;;;;;;;;10501628;28;19924;-63
2022/09/04 12:14:01;;;;;;;;;;;;;;;;;;10503877;28;19929;-64
2022/09/04 12:19:04;;;;;;;;;;;;;;;;;;10502302;28;19932;-63
2022/09/04 12:24:06;;;;;;;;;;;;;;;;;;10502076;28;19929;-64
2022/09/04 12:29:08;;;;;;;;;;;;;;;;;;10501933;28;19924;-63
2022/09/04 12:34:10;;;;;;;;;;;;;;;;;;10500309;28;20402;-64
2022/09/04 12:39:12;;;;;;;;;;;;;;;;;;10505182;28;19925;-64
2022/09/04 12:44:15;;;;;;;;;;;;;;;;;;10499296;28;20295;-64
2022/09/04 12:49:17;;;;;;;;;;;;;;;;;;10500271;28;20028;-64
2022/09/04 12:54:19;;;;;;;;;;;;;;;;;;10501024;28;19925;-64
2022/09/04 12:59:22;;;;;;;;;;;;;;;;;;10504695;28;19931;-63
2022/09/04 13:04:24;;;;;;;;;;;;;;;;;;10499529;28;19932;-63
2022/09/04 13:09:28;;;;;;;;;;;;;;;;;;10504520;28;19932;-63
2022/09/04 13:14:30;;;;;;;;;;;;;;;;;;10502206;28;19929;-64
2022/09/04 13:19:34;;;;;;;;;;;;;;;;;;10500563;28;19925;-63
2022/09/04 13:24:40;;;;;;;;;;;;;;;;;;10500623;28;19939;-64
2022/09/04 13:29:45;;;;;;;;;;;;;;;;;;10498000;28;20352;-64
2022/09/04 13:34:47;;;;;;;;;;;;;;;;;;10500714;28;19932;-64
2022/09/04 13:39:50;;;;;;;;;;;;;;;;;;10503037;28;20513;-64
2022/09/04 13:44:52;;;;;;;;;;;;;;;;;;10500432;28;19930;-63
2022/09/04 13:49:54;;;;;;;;;;;;;;;;;;10500426;28;19925;-63
2022/09/04 13:54:57;;;;;;;;;;;;;;;;;;10499903;28;19928;-63
2022/09/04 14:00:02;;;;;;;;;;;;;;;;;;10496698;28;19936;-63
2022/09/04 14:05:04;;;;;;;;;;;;;;;;;;10497872;28;19924;-64
2022/09/04 14:10:06;;;;;;;;;;;;;;;;;;10500709;28;19950;-63
2022/09/04 14:15:08;;;;;;;;;;;;;;;;;;10498436;28;19924;-64
2022/09/04 14:20:11;;;;;;;;;;;;;;;;;;10498071;28;19935;-63
2022/09/04 14:25:14;;;;;;;;;;;;;;;;;;10498436;28;19925;-64
2022/09/04 14:30:16;;;;;;;;;;;;;;;;;;10496581;28;19925;-64
2022/09/04 14:35:18;;;;;;;;;;;;;;;;;;10500415;28;19938;-64
2022/09/04 14:40:24;;;;;;;;;;;;;;;;;;10497174;28;20026;-64
2022/09/04 14:45:30;;;;;;;;;;;;;;;;;;10497091;28;19924;-63
2022/09/04 14:50:33;;;;;;;;;;;;;;;;;;10494209;28;19925;-63
2022/09/04 14:55:35;;;;;;;;;;;;;;;;;;10497950;28;19931;-64
2022/09/04 15:00:37;;;;;;;;;;;;;;;;;;10495602;28;19936;-64
2022/09/04 15:05:39;;;;;;;;;;;;;;;;;;10501546;28;19990;-64
2022/09/04 15:10:41;;;;;;;;;;;;;;;;;;10503983;28;19925;-63
2022/09/04 15:15:45;;;;;;;;;;;;;;;;;;10509636;28;19924;-64
2022/09/04 15:20:47;;;;;;;;;;;;;;;;;;10503918;28;19925;-63
2022/09/04 15:25:49;;;;;;;;;;;;;;;;;;10517385;28;20391;-63
2022/09/04 15:31:00;;;;;;;;;;;;;;;;;;10490031;28;19936;-63
2022/09/04 15:36:03;;;;;;;;;;;;;;;;;;10505167;28;19924;-63
2022/09/04 15:41:05;;;;;;;;;;;;;;;;;;10503515;28;19924;-63
2022/09/04 15:46:17;;;;;;;;;;;;;;;;;;10503278;28;20038;-63
2022/09/04 15:51:19;;;;;;;;;;;;;;;;;;10486689;28;19977;-63
2022/09/04 15:56:22;;;;;;;;;;;;;;;;;;10518926;28;19932;-63
2022/09/04 16:01:25;;;;;;;;;;;;;;;;;;10502057;28;19924;-63
2022/09/04 16:06:28;;;;;;;;;;;;;;;;;;10502792;28;19928;-63
2022/09/04 16:11:31;;;;;;;;;;;;;;;;;;10486095;28;19935;-63
2022/09/04 16:16:33;;;;;;;;;;;;;;;;;;10499408;28;19924;-63
2022/09/04 16:21:39;;;;;;;;;;;;;;;;;;10504984;28;20421;-63
2022/09/04 16:26:41;;;;;;;;;;;;;;;;;;10508089;28;19929;-63
2022/09/04 16:31:43;;;;;;;;;;;;;;;;;;10503576;28;19924;-64
2022/09/04 16:36:46;;;;;;;;;;;;;;;;;;10499736;28;19924;-63
2022/09/04 16:41:49;;;;;;;;;;;;;;;;;;10501109;28;19929;-63
2022/09/04 16:46:59;;;;;;;;;;;;;;;;;;10501130;28;19928;-63
2022/09/04 16:52:01;;;;;;;;;;;;;;;;;;10499892;28;19935;-63
2022/09/04 16:57:04;;;;;;;;;;;;;;;;;;10506552;28;20394;-63
2022/09/04 17:02:13;;;;;;;;;;;;;;;;;;10498987;28;19931;-63
2022/09/04 17:07:15;;;;;;;;;;;;;;;;;;10512311;28;20371;-63
2022/09/04 17:12:17;;;;;;;;;;;;;;;;;;10499893;28;19924;-63
2022/09/04 17:17:21;;;;;;;;;;;;;;;;;;10463911;28;20394;-63
2022/09/04 17:22:33;;;;;;;;;;;;;;;;;;10501105;28;19975;-64
2022/09/04 17:27:56;;;;;;;;;;;;;;;;;;10499113;28;19933;-63
2022/09/04 17:33:18;;;;;;;;;;;;;;;;;;10503952;28;19957;-63
2022/09/04 17:38:40;;;;;;;;;;;;;;;;;;10494323;28;19924;-63
2022/09/04 17:44:02;;;;;;;;;;;;;;;;;;10500133;28;20291;-63
2022/09/04 17:49:04;;;;;;;;;;;;;;;;;;10496414;28;20368;-63
2022/09/04 17:54:06;;;;;;;;;;;;;;;;;;10499049;28;20364;-62
2022/09/04 17:59:08;;;;;;;;;;;;;;;;;;10500456;28;19925;-63
2022/09/04 18:04:10;;;;;;;;;;;;;;;;;;10499472;28;19925;-62
2022/09/04 18:09:22;;;;;;;;;;;;;;;;;;10497578;28;19925;-63
2022/09/04 18:14:30;;;;;;;;;;;;;;;;;;10499649;28;20015;-62
2022/09/04 18:19:32;;;;;;;;;;;;;;;;;;10499929;28;19932;-62
2022/09/04 18:24:34;;;;;;;;;;;;;;;;;;10497131;28;19925;-63
2022/09/04 18:29:37;;;;;;;;;;;;;;;;;;10496433;28;19931;-62
2022/09/04 18:34:59;;;;;;;;;;;;;;;;;;10498358;28;19970;-62
2022/09/04 18:40:21;;;;;;;;;;;;;;;;;;10498044;28;19947;-62
2022/09/04 18:45:43;;;;;;;;;;;;;;;;;;10490086;28;19924;-62
2022/09/04 18:51:05;;;;;;;;;;;;;;;;;;10506289;28;20382;-63
2022/09/04 18:56:21;;;;;;;;;;;;;;;;;;10506174;28;20007;-62
2022/09/04 19:01:24;;;;;;;;;;;;;;;;;;10500894;22;19925;-65
2022/09/04 19:06:28;;;;;;;;;;;;;;;;;;10464749;28;19929;-66
2022/09/04 19:11:30;;;;;;;;;;;;;;;;;;10464202;28;19931;-65
2022/09/04 19:16:32;;;;;;;;;;;;;;;;;;10464777;28;19924;-66
2022/09/04 19:21:34;;;;;;;;;;;;;;;;;;10464305;28;19925;-65
2022/09/04 19:26:36;;;;;;;;;;;;;;;;;;10463674;28;19924;-65
2022/09/04 19:31:38;;;;;;;;;;;;;;;;;;10446324;28;19924;-65
2022/09/04 19:36:42;;;;;;;;;;;;;;;;;;10463896;28;19924;-65
2022/09/04 19:41:44;;;;;;;;;;;;;;;;;;10463586;28;19931;-65
2022/09/04 19:47:06;;;;;;;;;;;;;;;;;;10462761;28;20334;-65
2022/09/04 19:52:08;;;;;;;;;;;;;;;;;;10463215;28;19925;-65
2022/09/04 19:57:30;;;;;;;;;;;;;;;;;;10462071;28;19925;-65
2022/09/04 20:02:34;;;;;;;;;;;;;;;;;;10457255;28;19924;-65
2022/09/04 20:07:37;;;;;;;;;;;;;;;;;;10462207;28;19925;-65
2022/09/04 20:12:42;;;;;;;;;;;;;;;;;;10461662;28;20287;-65
2022/09/04 20:17:44;;;;;;;;;;;;;;;;;;10458570;28;20288;-65
2022/09/04 20:22:46;;;;;;;;;;;;;;;;;;10459947;28;19925;-65
2022/09/04 20:27:48;;;;;;;;;;;;;;;;;;10459091;28;20367;-65
2022/09/04 20:32:50;;;;;;;;;;;;;;;;;;10461635;28;19925;-66
2022/09/04 20:37:57;;;;;;;;;;;;;;;;;;10459839;28;19975;-65
2022/09/04 20:42:59;;;;;;;;;;;;;;;;;;10458980;28;19935;-65
2022/09/04 20:48:02;;;;;;;;;;;;;;;;;;10460005;28;19925;-65
2022/09/04 20:53:24;;;;;;;;;;;;;;;;;;10460897;28;19928;-66
2022/09/04 20:58:26;;;;;;;;;;;;;;;;;;10459939;28;20287;-65
2022/09/04 21:03:49;;;;;;;;;;;;;;;;;;10458654;28;19932;-65
2022/09/04 21:08:57;;;;;;;;;;;;;;;;;;10457287;28;20294;-65
2022/09/04 21:13:59;;;;;;;;;;;;;;;;;;10460013;28;19928;-65
2022/09/04 21:19:01;;;;;;;;;;;;;;;;;;10458037;28;19933;-65
2022/09/04 21:24:15;;;;;;;;;;;;;;;;;;10456089;28;19933;-65
2022/09/04 21:29:17;;;;;;;;;;;;;;;;;;10456215;28;19925;-65
2022/09/04 21:34:19;;;;;;;;;;;;;;;;;;10458374;28;19936;-65
2022/09/04 21:39:22;;;;;;;;;;;;;;;;;;10456946;28;19929;-64
2022/09/04 21:44:24;;;;;;;;;;;;;;;;;;10458179;28;19925;-64
2022/09/04 21:49:26;;;;;;;;;;;;;;;;;;10457237;28;19932;-64
2022/09/04 21:54:28;;;;;;;;;;;;;;;;;;10458359;28;20383;-65
2022/09/04 21:59:50;;;;;;;;;;;;;;;;;;10455018;28;19929;-64
2022/09/04 22:05:14;;;;;;;;;;;;;;;;;;10458018;28;19924;-65
2022/09/04 22:10:17;;;;;;;;;;;;;;;;;;10456450;28;20257;-64
2022/09/04 22:15:39;;;;;;;;;;;;;;;;;;10457051;28;20375;-65
2022/09/04 22:20:41;;;;;;;;;;;;;;;;;;10454930;28;19924;-65
2022/09/04 22:25:47;;;;;;;;;;;;;;;;;;10457489;28;19925;-65
2022/09/04 22:30:49;;;;;;;;;;;;;;;;;;10457409;28;19939;-64
2022/09/04 22:35:51;;;;;;;;;;;;;;;;;;10452438;28;19932;-64
2022/09/04 22:40:54;;;;;;;;;;;;;;;;;;10457133;28;19931;-64
2022/09/04 22:45:58;;;;;;;;;;;;;;;;;;10457178;28;19968;-64
2022/09/04 22:51:00;;;;;;;;;;;;;;;;;;10456323;28;19925;-65
2022/09/04 22:56:02;;;;;;;;;;;;;;;;;;10454840;28;19925;-65
2022/09/04 23:01:24;;;;;;;;;;;;;;;;;;10456197;28;19925;-65
2022/09/04 23:06:26;;;;;;;;;;;;;;;;;;10456123;28;20060;-65
2022/09/04 23:11:48;;;;;;;;;;;;;;;;;;10456012;28;20334;-65
2022/09/04 23:17:11;;;;;;;;;;;;;;;;;;10453823;28;20372;-65
2022/09/04 23:22:13;;;;;;;;;;;;;;;;;;10454412;28;19935;-65
2022/09/04 23:27:35;;;;;;;;;;;;;;;;;;10455677;28;20260;-65
2022/09/04 23:32:37;;;;;;;;;;;;;;;;;;10462027;28;19925;-64
2022/09/04 23:37:40;;;;;;;;;;;;;;;;;;10463067;28;19928;-65
2022/09/04 23:42:42;;;;;;;;;;;;;;;;;;10460095;28;19932;-65
2022/09/04 23:47:44;;;;;;;;;;;;;;;;;;10463411;28;19925;-65
2022/09/04 23:52:50;;;;;;;;;;;;;;;;;;10463225;28;19929;-65
2022/09/04 23:57:52;;;;;;;;;;;;;;;;;;10460838;28;19928;-65
